createdAt,value
2022-10-17T00:00:08.458Z,21.23
2022-10-17T00:02:34.878Z,20.00
2022-10-17T00:05:01.282Z,20.60
2022-10-17T00:07:27.936Z,19.63
2022-10-17T00:09:54.723Z,26.95
2022-10-17T00:12:21.189Z,20.58
2022-10-17T00:14:47.837Z,23.80
2022-10-17T00:17:15.512Z,25.45
2022-10-17T00:19:42.200Z,23.23
2022-10-17T00:22:08.619Z,27.30
2022-10-17T00:24:34.998Z,26.13
2022-10-17T00:27:01.447Z,23.42
2022-10-17T00:29:27.850Z,29.40
2022-10-17T00:31:56.021Z,27.73
2022-10-17T00:34:23.157Z,32.00
2022-10-17T00:36:49.570Z,25.23
2022-10-17T00:39:17.136Z,24.33
2022-10-17T00:41:43.514Z,24.75
2022-10-17T00:44:28.838Z,30.98
2022-10-17T00:46:56.417Z,26.75
2022-10-17T00:49:23.929Z,27.50
2022-10-17T00:51:54.216Z,25.52
2022-10-17T00:54:23.516Z,23.60
2022-10-17T00:56:50.265Z,23.27
2022-10-17T00:59:17.952Z,26.13
2022-10-17T01:01:49.432Z,25.40
2022-10-17T01:04:15.833Z,28.58
2022-10-17T01:06:42.247Z,25.95
2022-10-17T01:09:08.637Z,24.95
2022-10-17T01:11:59.438Z,28.67
2022-10-17T01:14:38.284Z,25.15
2022-10-17T01:17:25.472Z,22.88
2022-10-17T01:19:51.763Z,33.13
2022-10-17T01:22:23.904Z,27.60
2022-10-17T01:25:15.002Z,26.15
2022-10-17T01:31:04.553Z,29.63
2022-10-17T01:33:53.980Z,26.13
2022-10-17T01:36:33.657Z,27.20
2022-10-17T01:39:17.381Z,24.45
2022-10-17T01:41:49.769Z,25.35
2022-10-17T01:44:21.385Z,24.13
2022-10-17T01:46:50.789Z,24.38
2022-10-17T01:49:19.862Z,23.65
2022-10-17T01:51:51.268Z,21.05
2022-10-17T01:54:22.151Z,23.17
2022-10-17T01:56:50.682Z,21.25
2022-10-17T01:59:23.826Z,24.77
2022-10-17T02:01:52.894Z,21.98
2022-10-17T02:04:19.801Z,21.02
2022-10-17T02:06:46.515Z,25.60
2022-10-17T02:09:18.489Z,22.85
2022-10-17T02:11:52.757Z,22.08
2022-10-17T02:14:32.882Z,22.80
2022-10-17T02:17:17.474Z,19.80
2022-10-17T02:19:57.705Z,24.10
2022-10-17T02:23:06.798Z,19.25
2022-10-17T02:25:43.882Z,19.05
2022-10-17T02:28:23.150Z,17.77
2022-10-17T02:31:10.486Z,19.95
2022-10-17T02:33:56.857Z,19.15
2022-10-17T02:36:26.648Z,19.88
2022-10-17T02:38:54.713Z,25.70
2022-10-17T02:41:22.351Z,19.23
2022-10-17T02:43:50.182Z,15.95
2022-10-17T02:46:21.115Z,23.85
2022-10-17T02:51:45.803Z,17.80
2022-10-17T02:54:27.403Z,22.02
2022-10-17T02:56:57.576Z,19.00
2022-10-17T02:59:25.907Z,19.65
2022-10-17T03:01:52.694Z,19.77
2022-10-17T03:04:20.152Z,17.92
2022-10-17T03:06:48.098Z,17.85
2022-10-17T03:09:15.134Z,19.60
2022-10-17T03:11:42.069Z,19.17
2022-10-17T03:14:08.548Z,17.38
2022-10-17T03:16:35.014Z,17.45
2022-10-17T03:19:01.507Z,23.23
2022-10-17T03:21:28.002Z,18.63
2022-10-17T03:23:54.426Z,18.33
2022-10-17T03:26:20.962Z,18.20
2022-10-17T03:28:50.653Z,20.40
2022-10-17T03:31:20.101Z,18.13
2022-10-17T03:33:46.489Z,19.63
2022-10-17T03:36:15.946Z,20.50
2022-10-17T03:38:43.590Z,22.30
2022-10-17T03:41:10.267Z,17.10
2022-10-17T03:43:37.062Z,16.67
2022-10-17T03:46:03.578Z,18.63
2022-10-17T03:48:30.704Z,17.13
2022-10-17T03:51:04.642Z,15.88
2022-10-17T03:53:31.033Z,16.65
2022-10-17T03:55:57.810Z,19.52
2022-10-17T03:58:24.270Z,18.10
2022-10-17T04:00:50.774Z,18.15
2022-10-17T04:03:17.500Z,18.45
2022-10-17T04:05:43.988Z,15.00
2022-10-17T04:08:10.466Z,17.60
2022-10-17T04:10:36.842Z,13.70
2022-10-17T04:13:03.498Z,13.05
2022-10-17T04:15:29.889Z,15.80
2022-10-17T04:17:56.356Z,20.58
2022-10-17T04:20:22.797Z,20.50
2022-10-17T04:22:49.177Z,14.65
2022-10-17T04:25:15.563Z,14.80
2022-10-17T04:27:42.078Z,13.50
2022-10-17T04:30:09.187Z,17.38
2022-10-17T04:32:39.107Z,18.92
2022-10-17T04:35:05.889Z,15.43
2022-10-17T04:37:32.437Z,16.92
2022-10-17T04:39:58.821Z,13.73
2022-10-17T04:42:25.219Z,12.40
2022-10-17T04:44:51.641Z,16.98
2022-10-17T04:47:18.006Z,14.45
2022-10-17T04:49:44.666Z,15.77
2022-10-17T04:52:11.124Z,18.48
2022-10-17T04:54:37.486Z,15.07
2022-10-17T04:57:03.982Z,16.95
2022-10-17T04:59:31.190Z,14.90
2022-10-17T05:01:57.609Z,15.90
2022-10-17T05:04:25.210Z,15.38
2022-10-17T05:06:51.587Z,15.05
2022-10-17T05:09:17.996Z,18.35
2022-10-17T05:11:44.379Z,17.23
2022-10-17T05:14:10.740Z,16.80
2022-10-17T05:16:37.118Z,14.10
2022-10-17T05:19:03.612Z,16.90
2022-10-17T05:21:30.361Z,12.80
2022-10-17T05:23:57.359Z,25.42
2022-10-17T05:26:24.279Z,14.93
2022-10-17T05:28:52.376Z,18.88
2022-10-17T05:31:18.983Z,15.18
2022-10-17T05:33:45.391Z,15.77
2022-10-17T05:36:11.782Z,17.80
2022-10-17T05:38:38.183Z,12.55
2022-10-17T05:41:05.606Z,11.60
2022-10-17T05:43:32.901Z,13.98
2022-10-17T05:45:59.366Z,14.27
2022-10-17T05:48:25.769Z,14.98
2022-10-17T05:51:01.089Z,14.30
2022-10-17T05:53:31.021Z,13.30
2022-10-17T05:56:01.913Z,13.32
2022-10-17T06:01:14.988Z,13.02
2022-10-17T06:03:41.357Z,13.50
2022-10-17T06:06:10.064Z,12.82
2022-10-17T06:08:36.650Z,11.82
2022-10-17T06:11:06.113Z,14.20
2022-10-17T06:13:35.619Z,11.98
2022-10-17T06:16:02.195Z,16.08
2022-10-17T06:18:29.083Z,13.00
2022-10-17T06:21:02.446Z,24.15
2022-10-17T06:23:28.852Z,14.43
2022-10-17T06:25:58.785Z,12.80
2022-10-17T06:28:25.174Z,20.10
2022-10-17T06:30:51.628Z,14.45
2022-10-17T06:33:18.176Z,11.85
2022-10-17T06:35:44.682Z,16.40
2022-10-17T06:38:11.089Z,15.40
2022-10-17T06:40:37.454Z,14.55
2022-10-17T06:43:03.831Z,19.70
2022-10-17T06:45:30.233Z,19.83
2022-10-17T06:47:56.668Z,11.63
2022-10-17T06:50:23.181Z,11.88
2022-10-17T06:52:52.741Z,13.90
2022-10-17T06:55:22.638Z,14.02
2022-10-17T06:57:51.682Z,14.27
2022-10-17T07:00:18.285Z,16.20
2022-10-17T07:02:44.745Z,17.27
2022-10-17T07:05:11.199Z,11.48
2022-10-17T07:07:40.175Z,14.50
2022-10-17T07:10:09.620Z,16.27
2022-10-17T07:12:36.426Z,15.88
2022-10-17T07:15:04.766Z,14.00
2022-10-17T07:17:31.802Z,12.93
2022-10-17T07:19:58.389Z,19.88
2022-10-17T07:22:24.857Z,14.20
2022-10-17T07:24:51.218Z,13.20
2022-10-17T07:27:17.692Z,16.13
2022-10-17T07:29:44.146Z,16.10
2022-10-17T07:32:10.571Z,18.10
2022-10-17T07:34:37.428Z,13.20
2022-10-17T07:37:03.993Z,16.50
2022-10-17T07:39:30.420Z,17.83
2022-10-17T07:41:56.834Z,13.75
2022-10-17T07:44:23.240Z,11.98
2022-10-17T07:46:49.721Z,13.35
2022-10-17T07:49:16.111Z,16.95
2022-10-17T07:51:42.625Z,13.50
2022-10-17T07:54:09.168Z,12.50
2022-10-17T07:56:36.104Z,12.45
2022-10-17T07:59:05.146Z,12.90
2022-10-17T08:01:34.800Z,16.50
2022-10-17T08:04:01.211Z,12.20
2022-10-17T08:06:27.608Z,15.90
2022-10-17T08:08:53.978Z,12.57
2022-10-17T08:11:21.209Z,13.32
2022-10-17T08:13:47.604Z,11.35
2022-10-17T08:16:14.046Z,15.40
2022-10-17T08:18:43.249Z,18.38
2022-10-17T08:21:10.040Z,14.98
2022-10-17T08:23:36.922Z,15.93
2022-10-17T08:26:05.685Z,20.02
2022-10-17T08:28:35.370Z,12.77
2022-10-17T08:31:13.637Z,23.30
2022-10-17T08:33:41.049Z,15.35
2022-10-17T08:36:08.758Z,12.18
2022-10-17T08:38:36.910Z,16.23
2022-10-17T08:41:07.443Z,14.63
2022-10-17T08:43:52.707Z,15.10
2022-10-17T08:46:19.602Z,11.82
2022-10-17T08:48:47.463Z,16.60
2022-10-17T08:51:21.171Z,13.80
2022-10-17T08:53:58.316Z,12.45
2022-10-17T08:56:44.509Z,13.43
2022-10-17T08:59:17.206Z,14.35
2022-10-17T09:02:03.832Z,13.75
2022-10-17T09:04:42.746Z,15.88
2022-10-17T09:07:42.601Z,9.95
2022-10-17T09:10:21.350Z,13.82
2022-10-17T09:13:12.570Z,13.38
2022-10-17T09:15:51.957Z,18.50
2022-10-17T09:18:31.409Z,15.80
2022-10-17T09:21:04.916Z,12.02
2022-10-17T09:23:40.351Z,14.77
2022-10-17T09:26:12.955Z,11.52
2022-10-17T09:28:41.557Z,12.13
2022-10-17T09:31:24.087Z,12.95
2022-10-17T09:33:54.901Z,12.85
2022-10-17T09:36:40.537Z,18.85
2022-10-17T09:39:16.415Z,13.05
2022-10-17T09:41:47.591Z,13.05
2022-10-17T09:44:15.961Z,12.45
2022-10-17T09:46:47.355Z,11.73
2022-10-17T09:49:19.658Z,14.57
2022-10-17T09:51:46.113Z,14.50
2022-10-17T09:54:23.094Z,15.93
2022-10-17T09:57:06.998Z,14.05
2022-10-17T09:59:42.567Z,11.30
2022-10-17T10:02:12.176Z,15.90
2022-10-17T10:05:06.282Z,14.50
2022-10-17T10:07:36.996Z,15.68
2022-10-17T10:10:06.129Z,13.97
2022-10-17T10:12:36.528Z,15.15
2022-10-17T10:15:33.735Z,15.23
2022-10-17T10:18:00.281Z,15.38
2022-10-17T10:20:35.722Z,14.10
2022-10-17T10:23:17.217Z,13.30
2022-10-17T10:26:21.053Z,13.52
2022-10-17T10:28:56.465Z,17.10
2022-10-17T10:31:35.282Z,11.57
2022-10-17T10:34:12.635Z,19.33
2022-10-17T10:36:51.186Z,16.58
2022-10-17T10:39:29.606Z,15.85
2022-10-17T10:41:56.142Z,13.38
2022-10-17T10:44:24.859Z,15.63
2022-10-17T10:47:23.950Z,22.10
2022-10-17T10:49:52.600Z,16.23
2022-10-17T10:52:32.563Z,18.42
2022-10-17T10:55:34.918Z,18.43
2022-10-17T10:58:06.112Z,20.13
2022-10-17T11:00:34.879Z,17.17
2022-10-17T11:03:30.255Z,19.33
2022-10-17T11:06:02.320Z,22.33
2022-10-17T11:08:46.183Z,19.92
2022-10-17T11:11:38.963Z,18.20
2022-10-17T11:14:18.657Z,19.90
2022-10-17T11:16:49.791Z,25.10
2022-10-17T11:19:18.500Z,19.55
2022-10-17T11:22:37.476Z,25.77
2022-10-17T11:25:24.473Z,19.35
2022-10-17T11:27:50.890Z,27.23
2022-10-17T11:30:17.616Z,21.48
2022-10-17T11:32:47.581Z,23.40
2022-10-17T11:35:40.978Z,25.03
2022-10-17T11:38:19.358Z,31.00
2022-10-17T11:40:50.751Z,22.52
2022-10-17T11:43:29.109Z,23.48
2022-10-17T11:46:18.885Z,24.45
2022-10-17T11:49:00.042Z,18.45
2022-10-17T11:54:26.557Z,18.77
2022-10-17T11:57:10.727Z,19.95
2022-10-17T11:59:48.671Z,25.38
2022-10-17T12:02:23.834Z,24.48
2022-10-17T12:04:56.718Z,21.75
2022-10-17T12:08:05.439Z,18.77
2022-10-17T12:10:48.335Z,20.15
2022-10-17T12:13:33.334Z,19.35
2022-10-17T12:16:28.944Z,18.88
2022-10-17T12:19:22.295Z,19.40
2022-10-17T12:22:13.157Z,16.85
2022-10-17T12:24:42.177Z,17.08
2022-10-17T12:27:28.486Z,15.57
2022-10-17T12:30:19.630Z,17.05
2022-10-17T12:35:34.886Z,23.48
2022-10-17T12:38:02.418Z,20.45
2022-10-17T12:40:34.629Z,18.48
2022-10-17T12:43:01.868Z,15.07
2022-10-17T12:46:05.609Z,20.17
2022-10-17T12:48:38.260Z,20.02
2022-10-17T12:51:30.818Z,16.23
2022-10-17T12:53:59.465Z,16.30
2022-10-17T12:56:31.932Z,16.17
2022-10-17T12:58:59.043Z,28.63
2022-10-17T13:01:33.105Z,19.65
2022-10-17T13:04:05.802Z,21.05
2022-10-17T13:06:39.887Z,20.90
2022-10-17T13:09:19.060Z,19.20
2022-10-17T13:11:45.547Z,17.13
2022-10-17T13:14:14.723Z,18.45
2022-10-17T13:16:52.479Z,23.25
2022-10-17T13:19:23.107Z,16.23
2022-10-17T13:22:06.544Z,18.08
2022-10-17T13:24:38.362Z,21.80
2022-10-17T13:27:06.765Z,15.30
2022-10-17T13:29:33.589Z,16.60
2022-10-17T13:32:01.674Z,18.98
2022-10-17T13:34:28.840Z,15.75
2022-10-17T13:36:57.237Z,15.13
2022-10-17T13:39:44.805Z,18.70
2022-10-17T13:42:23.734Z,25.90
2022-10-17T13:44:50.282Z,21.63
2022-10-17T13:47:28.071Z,16.70
2022-10-17T13:49:55.634Z,20.45
2022-10-17T13:52:25.188Z,18.50
2022-10-17T13:54:53.555Z,14.70
2022-10-17T13:57:24.986Z,15.07
2022-10-17T13:59:59.866Z,21.52
2022-10-17T14:02:28.366Z,17.00
2022-10-17T14:05:19.315Z,23.15
2022-10-17T14:08:10.087Z,17.00
2022-10-17T14:10:34.704Z,20.50
2022-10-17T14:13:01.859Z,17.20
2022-10-17T14:15:30.446Z,20.30
2022-10-17T14:18:08.953Z,20.95
2022-10-17T14:23:38.055Z,16.50
2022-10-17T14:26:23.873Z,19.75
2022-10-17T14:29:04.590Z,18.50
2022-10-17T14:31:33.532Z,17.42
2022-10-17T14:34:01.028Z,20.90
2022-10-17T14:36:33.338Z,17.30
2022-10-17T14:39:00.140Z,13.95
2022-10-17T14:41:48.595Z,24.20
2022-10-17T14:44:24.398Z,17.92
2022-10-17T14:46:57.676Z,21.13
2022-10-17T14:49:42.344Z,19.05
2022-10-17T14:52:18.801Z,15.77
2022-10-17T14:54:47.540Z,15.23
2022-10-17T14:57:17.227Z,14.73
2022-10-17T14:59:59.394Z,19.95
2022-10-17T15:02:30.253Z,15.88
2022-10-17T15:04:57.296Z,18.50
2022-10-17T15:07:24.032Z,17.60
2022-10-17T15:09:52.574Z,13.35
2022-10-17T15:12:25.190Z,18.02
2022-10-17T15:14:52.824Z,13.63
2022-10-17T15:17:30.263Z,14.77
2022-10-17T15:19:57.353Z,25.08
2022-10-17T15:22:24.109Z,16.85
2022-10-17T15:24:50.745Z,17.70
2022-10-17T15:27:22.638Z,19.67
2022-10-17T15:29:49.728Z,14.70
2022-10-17T15:32:16.329Z,15.77
2022-10-17T15:34:43.075Z,18.00
2022-10-17T15:37:33.571Z,16.38
2022-10-17T15:40:00.175Z,20.95
2022-10-17T15:42:29.011Z,14.02
2022-10-17T15:44:56.157Z,20.55
2022-10-17T15:47:31.203Z,15.40
2022-10-17T15:49:58.528Z,21.20
2022-10-17T15:52:25.356Z,17.35
2022-10-17T15:54:52.343Z,20.13
2022-10-17T15:57:19.810Z,17.23
2022-10-17T15:59:50.152Z,17.45
2022-10-17T16:02:18.257Z,22.15
2022-10-17T16:04:44.926Z,22.38
2022-10-17T16:07:11.613Z,16.20
2022-10-17T16:09:38.257Z,18.15
2022-10-17T16:12:14.054Z,20.67
2022-10-17T16:14:40.787Z,18.38
2022-10-17T16:17:11.931Z,21.02
2022-10-17T16:19:38.387Z,20.25
2022-10-17T16:22:06.227Z,22.88
2022-10-17T16:24:33.031Z,19.98
2022-10-17T16:26:59.614Z,20.10
2022-10-17T16:29:25.992Z,21.63
2022-10-17T16:31:52.573Z,19.75
2022-10-17T16:34:18.971Z,23.88
2022-10-17T16:36:45.345Z,19.58
2022-10-17T16:39:11.737Z,26.00
2022-10-17T16:41:38.950Z,25.88
2022-10-17T16:44:08.050Z,19.38
2022-10-17T16:46:37.099Z,21.05
2022-10-17T16:49:04.741Z,23.40
2022-10-17T16:51:33.574Z,20.90
2022-10-17T16:54:00.226Z,24.30
2022-10-17T16:56:32.518Z,19.25
2022-10-17T16:59:00.622Z,19.20
2022-10-17T17:01:29.072Z,21.35
2022-10-17T17:03:56.129Z,19.20
2022-10-17T17:06:25.119Z,23.50
2022-10-17T17:08:51.818Z,22.02
2022-10-17T17:11:20.678Z,21.10
2022-10-17T17:13:47.413Z,20.55
2022-10-17T17:16:16.840Z,20.55
2022-10-17T17:18:43.652Z,19.67
2022-10-17T17:21:10.689Z,23.55
2022-10-17T17:23:39.565Z,23.83
2022-10-17T17:26:14.866Z,22.45
2022-10-17T17:28:42.228Z,18.77
2022-10-17T17:31:13.406Z,21.35
2022-10-17T17:33:41.066Z,24.55
2022-10-17T17:36:08.449Z,21.98
2022-10-17T17:38:36.186Z,22.05
2022-10-17T17:41:03.612Z,21.67
2022-10-17T17:43:30.153Z,23.52
2022-10-17T17:45:56.571Z,28.30
2022-10-17T17:48:23.212Z,19.95
2022-10-17T17:50:51.937Z,20.13
2022-10-17T17:53:18.759Z,25.40
2022-10-17T17:55:45.423Z,25.63
2022-10-17T17:58:12.404Z,24.17
2022-10-17T18:00:40.490Z,24.95
2022-10-17T18:03:07.142Z,24.77
2022-10-17T18:05:33.589Z,24.17
2022-10-17T18:07:59.974Z,21.92
2022-10-17T18:10:28.218Z,24.15
2022-10-17T18:12:54.622Z,22.27
2022-10-17T18:15:21.054Z,35.50
2022-10-17T18:17:47.594Z,30.48
2022-10-17T18:20:14.145Z,22.02
2022-10-17T18:22:45.549Z,34.05
2022-10-17T18:25:12.016Z,26.42
2022-10-17T18:27:38.437Z,21.92
2022-10-17T18:30:06.128Z,25.33
2022-10-17T18:32:32.869Z,24.77
2022-10-17T18:34:59.492Z,23.17
2022-10-17T18:37:29.624Z,24.10
2022-10-17T18:39:57.346Z,21.77
2022-10-17T18:42:23.799Z,21.05
2022-10-17T18:44:50.478Z,26.17
2022-10-17T18:47:16.908Z,22.63
2022-10-17T18:49:43.479Z,20.77
2022-10-17T18:52:09.913Z,26.08
2022-10-17T18:54:36.436Z,23.80
2022-10-17T18:57:03.173Z,20.50
2022-10-17T18:59:30.156Z,23.73
2022-10-17T19:01:56.660Z,22.75
2022-10-17T19:04:23.140Z,23.70
2022-10-17T19:06:49.706Z,23.08
2022-10-17T19:09:16.268Z,23.98
2022-10-17T19:11:42.936Z,24.23
2022-10-17T19:14:13.856Z,23.88
2022-10-17T19:16:43.120Z,23.00
2022-10-17T19:19:17.199Z,23.85
2022-10-17T19:21:44.179Z,27.08
2022-10-17T19:24:19.178Z,25.42
2022-10-17T19:26:46.528Z,21.48
2022-10-17T19:29:14.321Z,27.73
2022-10-17T19:31:41.000Z,26.30
2022-10-17T19:34:07.461Z,28.73
2022-10-17T19:36:35.129Z,30.35
2022-10-17T19:39:07.970Z,29.92
2022-10-17T19:41:36.293Z,26.73
2022-10-17T19:44:03.161Z,25.35
2022-10-17T19:46:30.675Z,25.45
2022-10-17T19:48:57.505Z,26.23
2022-10-17T19:51:24.898Z,26.65
2022-10-17T19:53:52.472Z,28.23
2022-10-17T19:56:20.583Z,27.20
2022-10-17T19:58:47.974Z,27.67
2022-10-17T20:01:17.134Z,23.65
2022-10-17T20:03:43.703Z,24.60
2022-10-17T20:06:12.431Z,31.50
2022-10-17T20:08:42.055Z,23.85
2022-10-17T20:11:11.657Z,24.52
2022-10-17T20:13:38.449Z,21.88
2022-10-17T20:16:06.065Z,25.17
2022-10-17T20:18:32.542Z,23.58
2022-10-17T20:21:04.895Z,20.38
2022-10-17T20:23:31.287Z,21.65
2022-10-17T20:26:13.327Z,21.95
2022-10-17T20:28:46.020Z,22.95
2022-10-17T20:31:12.922Z,20.42
2022-10-17T20:33:41.291Z,26.38
2022-10-17T20:36:09.470Z,24.02
2022-10-17T20:38:38.416Z,24.90
2022-10-17T20:41:07.124Z,20.88
2022-10-17T20:43:35.719Z,30.77
2022-10-17T20:46:11.051Z,25.67
2022-10-17T20:48:57.915Z,19.67
2022-10-17T20:51:25.958Z,21.55
2022-10-17T20:53:52.806Z,22.80
2022-10-17T20:56:22.908Z,19.52
2022-10-17T20:58:58.288Z,22.17
2022-10-17T21:01:25.922Z,20.20
2022-10-17T21:03:52.745Z,18.23
2022-10-17T21:06:19.567Z,19.75
2022-10-17T21:08:46.913Z,18.58
2022-10-17T21:11:16.573Z,18.17
2022-10-17T21:13:43.534Z,20.95
2022-10-17T21:16:15.348Z,19.13
2022-10-17T21:18:42.014Z,19.30
2022-10-17T21:21:11.472Z,17.63
2022-10-17T21:23:38.459Z,18.83
2022-10-17T21:26:07.005Z,17.73
2022-10-17T21:28:34.392Z,20.70
2022-10-17T21:31:30.328Z,22.05
2022-10-17T21:33:59.691Z,17.02
2022-10-17T21:36:27.550Z,16.88
2022-10-17T21:38:55.568Z,16.95
2022-10-17T21:41:23.948Z,18.88
2022-10-17T21:43:55.693Z,17.08
2022-10-17T21:46:22.273Z,17.70
2022-10-17T21:48:49.081Z,19.90
2022-10-17T21:51:17.960Z,19.70
2022-10-17T21:53:44.368Z,15.05
2022-10-17T21:56:15.518Z,15.40
2022-10-17T21:58:41.978Z,25.30
2022-10-17T22:01:11.936Z,22.73
2022-10-17T22:03:44.079Z,18.73
2022-10-17T22:09:02.184Z,20.83
2022-10-17T22:11:30.583Z,18.45
2022-10-17T22:13:59.762Z,21.98
2022-10-17T22:16:26.777Z,21.13
2022-10-17T22:18:58.721Z,20.60
2022-10-17T22:21:27.959Z,24.85
2022-10-17T22:23:59.753Z,19.08
2022-10-17T22:26:27.644Z,21.05
2022-10-17T22:28:55.568Z,20.50
2022-10-17T22:31:22.142Z,23.85
2022-10-17T22:33:49.030Z,21.42
2022-10-17T22:36:15.394Z,22.50
2022-10-17T22:38:41.775Z,20.00
2022-10-17T22:41:08.178Z,24.35
2022-10-17T22:43:34.748Z,23.65
2022-10-17T22:46:03.037Z,24.83
2022-10-17T22:48:29.746Z,23.02
2022-10-17T22:50:57.653Z,17.98
2022-10-17T22:53:26.192Z,22.05
2022-10-17T22:55:58.308Z,24.42
2022-10-17T22:58:24.943Z,22.33
2022-10-17T23:00:52.524Z,22.45
2022-10-17T23:03:20.185Z,20.85
2022-10-17T23:05:46.962Z,26.45
2022-10-17T23:08:13.774Z,20.15
2022-10-17T23:10:40.169Z,17.88
2022-10-17T23:13:06.771Z,22.25
2022-10-17T23:15:33.948Z,25.65
2022-10-17T23:18:01.097Z,18.98
2022-10-17T23:20:28.505Z,15.85
2022-10-17T23:22:55.076Z,19.50
2022-10-17T23:25:21.534Z,16.02
2022-10-17T23:27:48.028Z,24.48
2022-10-17T23:30:14.644Z,23.35
2022-10-17T23:32:41.467Z,21.27
2022-10-17T23:35:08.744Z,18.00
2022-10-17T23:37:35.433Z,16.30
2022-10-17T23:40:02.176Z,16.73
2022-10-17T23:42:28.572Z,14.10
2022-10-17T23:44:54.954Z,13.63
2022-10-17T23:47:21.666Z,19.40
2022-10-17T23:49:48.115Z,17.20
2022-10-17T23:52:16.817Z,15.88
2022-10-17T23:54:43.684Z,16.73
2022-10-17T23:57:10.087Z,14.27
2022-10-17T23:59:36.537Z,12.75
